createdAt,value
2019-05-22T00:02:46.522Z,13.50
2019-05-22T00:08:05.405Z,13.50
2019-05-22T00:13:15.067Z,13.50
2019-05-22T00:18:24.372Z,13.50
2019-05-22T00:23:29.058Z,13.50
2019-05-22T00:28:39.551Z,13.50
2019-05-22T00:33:45.782Z,13.40
2019-05-22T00:39:01.019Z,13.40
2019-05-22T00:44:10.640Z,13.40
2019-05-22T00:49:18.368Z,13.40
2019-05-22T00:54:46.470Z,13.40
2019-05-22T01:00:03.234Z,13.40
2019-05-22T01:05:09.905Z,13.40
2019-05-22T01:10:17.954Z,13.30
2019-05-22T01:15:33.235Z,13.30
2019-05-22T01:20:46.054Z,13.30
2019-05-22T01:25:54.589Z,13.30
2019-05-22T01:31:16.623Z,13.30
2019-05-22T01:36:26.810Z,13.30
2019-05-22T01:41:37.097Z,13.30
2019-05-22T01:46:58.090Z,13.20
2019-05-22T01:52:13.020Z,13.20
2019-05-22T01:57:30.345Z,13.20
2019-05-22T02:02:46.615Z,13.20
2019-05-22T02:07:48.624Z,13.20
2019-05-22T02:12:59.299Z,13.20
2019-05-22T02:18:11.051Z,13.20
2019-05-22T02:23:17.739Z,13.20
2019-05-22T02:34:50.297Z,13.10
2019-05-22T02:39:59.399Z,13.10
2019-05-22T02:45:12.038Z,13.10
2019-05-22T02:50:34.935Z,13.10
2019-05-22T02:55:44.562Z,13.10
2019-05-22T03:01:00.765Z,13.10
2019-05-22T03:06:12.810Z,13.00
2019-05-22T03:11:19.696Z,13.00
2019-05-22T03:16:51.540Z,13.00
2019-05-22T03:21:58.010Z,13.00
2019-05-22T03:27:07.577Z,13.00
2019-05-22T03:32:16.911Z,13.00
2019-05-22T03:37:25.118Z,13.00
2019-05-22T03:42:45.315Z,13.00
2019-05-22T03:47:56.385Z,13.00
2019-05-22T03:53:21.396Z,13.00
2019-05-22T03:58:34.551Z,13.00
2019-05-22T04:04:00.246Z,13.00
2019-05-22T04:09:21.839Z,12.90
2019-05-22T04:14:40.819Z,12.90
2019-05-22T04:19:57.292Z,12.90
2019-05-22T04:25:12.221Z,12.90
2019-05-22T04:30:29.918Z,12.90
2019-05-22T04:35:37.724Z,12.90
2019-05-22T04:40:53.605Z,12.90
2019-05-22T04:46:10.083Z,12.90
2019-05-22T04:51:31.558Z,12.90
2019-05-22T04:56:50.496Z,12.80
2019-05-22T05:01:59.557Z,12.80
2019-05-22T08:06:45.905Z,13.50
2019-05-22T10:14:44.687Z,15.40
2019-05-22T10:37:32.321Z,15.80
2019-05-22T10:42:50.118Z,15.90
2019-05-22T10:47:54.886Z,16.00
2019-05-22T10:53:10.545Z,16.10
2019-05-22T10:58:12.990Z,16.20
2019-05-22T11:03:18.069Z,16.30
2019-05-22T11:08:23.229Z,16.30
2019-05-22T11:14:00.614Z,16.40
2019-05-22T12:05:28.132Z,16.90
2019-05-22T12:10:36.463Z,17.00
2019-05-22T12:15:40.922Z,17.10
2019-05-22T12:20:45.351Z,17.30
2019-05-22T12:25:51.608Z,17.40
2019-05-22T12:31:03.158Z,17.60
2019-05-22T12:36:15.636Z,17.70
2019-05-22T12:41:21.878Z,17.90
2019-05-22T12:46:33.016Z,18.00
2019-05-22T12:51:47.251Z,18.10
2019-05-22T12:56:53.283Z,18.10
2019-05-22T13:02:08.376Z,18.20
2019-05-22T13:07:19.703Z,18.30
2019-05-22T13:12:29.274Z,18.40
2019-05-22T13:17:41.142Z,18.50
2019-05-22T13:22:59.756Z,18.50
2019-05-22T13:28:06.877Z,18.60
2019-05-22T13:33:16.040Z,18.70
2019-05-22T13:38:20.726Z,18.90
2019-05-22T13:43:34.891Z,19.00
2019-05-22T13:48:44.046Z,19.00
2019-05-22T13:54:08.550Z,19.00
2019-05-22T13:59:12.429Z,19.00
2019-05-22T14:04:26.313Z,19.10
2019-05-22T14:09:32.760Z,19.20
2019-05-22T14:14:39.556Z,19.30
2019-05-22T14:19:44.003Z,19.40
2019-05-22T14:24:48.717Z,19.50
2019-05-22T14:29:58.169Z,19.60
2019-05-22T14:35:06.747Z,19.70
2019-05-22T14:40:30.056Z,19.80
2019-05-22T14:45:49.523Z,19.80
2019-05-22T14:51:00.996Z,19.90
2019-05-22T14:56:13.999Z,19.90
2019-05-22T15:01:18.769Z,19.90
2019-05-22T15:06:26.374Z,19.90
2019-05-22T15:11:35.134Z,19.90
2019-05-22T15:16:45.270Z,20.00
2019-05-22T15:21:57.483Z,20.00
2019-05-22T15:27:09.956Z,20.00
2019-05-22T15:32:20.921Z,20.00
2019-05-22T15:37:31.797Z,20.00
2019-05-22T15:42:40.492Z,20.00
2019-05-22T15:47:56.523Z,20.00
2019-05-22T15:52:58.283Z,20.00
2019-05-22T15:58:05.774Z,20.00
2019-05-22T16:03:28.276Z,20.00
2019-05-22T16:08:36.053Z,20.00
2019-05-22T16:13:44.677Z,20.00
2019-05-22T16:18:54.183Z,20.00
2019-05-22T16:24:04.252Z,20.00
2019-05-22T16:29:09.763Z,20.00
2019-05-22T16:34:15.622Z,20.00
2019-05-22T16:39:26.913Z,20.00
2019-05-22T16:44:33.737Z,20.00
2019-05-22T16:49:43.714Z,20.00
2019-05-22T16:54:48.748Z,20.00
2019-05-22T16:59:54.822Z,19.90
2019-05-22T17:05:06.128Z,19.90
2019-05-22T17:10:16.509Z,19.90
2019-05-22T17:15:30.998Z,19.80
2019-05-22T17:20:47.879Z,19.80
2019-05-22T17:25:56.468Z,19.70
2019-05-22T17:31:07.833Z,19.70
2019-05-22T17:36:33.401Z,19.50
2019-05-22T17:41:44.250Z,19.50
2019-05-22T17:47:18.602Z,19.50
2019-05-22T17:52:29.411Z,19.40
2019-05-22T17:57:44.061Z,19.30
2019-05-22T18:02:48.608Z,19.30
2019-05-22T18:07:55.777Z,19.20
2019-05-22T18:15:01.705Z,19.20
2019-05-22T18:18:37.218Z,19.10
2019-05-22T18:23:44.455Z,19.10
2019-05-22T18:28:58.142Z,19.00
2019-05-22T18:34:04.941Z,19.00
2019-05-22T18:39:11.188Z,18.90
2019-05-22T18:44:19.304Z,18.80
2019-05-22T18:49:26.775Z,18.80
2019-05-22T18:54:33.382Z,18.70
2019-05-22T19:05:40.948Z,18.70
2019-05-22T19:10:53.118Z,18.60
2019-05-22T19:16:11.598Z,18.50
2019-05-22T19:21:09.677Z,18.50
2019-05-22T19:26:14.231Z,18.50
2019-05-22T19:31:23.258Z,18.40
2019-05-22T19:36:28.009Z,18.30
2019-05-22T19:41:33.663Z,18.30
2019-05-22T19:46:39.918Z,18.20
2019-05-22T19:51:47.907Z,18.20
2019-05-22T19:56:56.171Z,18.10
2019-05-22T20:02:07.817Z,18.10
2019-05-22T20:07:13.537Z,18.00
2019-05-22T20:12:19.277Z,17.90
2019-05-22T20:17:25.288Z,17.80
2019-05-22T20:22:32.980Z,17.80
2019-05-22T20:27:38.413Z,17.70
2019-05-22T20:32:45.326Z,17.60
2019-05-22T20:38:05.748Z,17.50
2019-05-22T20:43:13.764Z,17.40
2019-05-22T20:48:26.113Z,17.30
2019-05-22T20:53:32.950Z,17.30
2019-05-22T20:58:39.281Z,17.10
2019-05-22T21:03:48.162Z,17.00
2019-05-22T21:08:56.652Z,16.90
2019-05-22T21:14:17.148Z,16.80
2019-05-22T21:19:29.547Z,16.70
2019-05-22T21:24:44.660Z,16.60
2019-05-22T21:35:25.099Z,16.50
2019-05-22T21:40:31.001Z,16.40
2019-05-22T21:45:38.160Z,16.30
2019-05-22T21:50:49.316Z,16.20
2019-05-22T21:56:04.354Z,16.10
2019-05-22T22:01:08.063Z,16.00
2019-05-22T22:11:37.615Z,15.80
2019-05-22T22:16:44.633Z,15.70
2019-05-22T22:21:49.766Z,15.60
2019-05-22T22:26:55.985Z,15.50
2019-05-22T22:32:01.635Z,15.50
2019-05-22T22:37:17.497Z,15.40
2019-05-22T22:42:27.002Z,15.30
2019-05-22T22:47:36.152Z,15.20
2019-05-22T22:52:45.291Z,15.10
2019-05-22T22:57:51.606Z,15.10
2019-05-22T23:03:05.853Z,15.00
2019-05-22T23:08:14.938Z,14.90
2019-05-22T23:13:26.815Z,14.90
2019-05-22T23:18:46.027Z,14.80
2019-05-22T23:23:49.193Z,14.70
2019-05-22T23:28:55.227Z,14.60
2019-05-22T23:33:59.896Z,14.60
2019-05-22T23:39:16.546Z,14.50
2019-05-22T23:44:25.202Z,14.40
2019-05-22T23:49:30.348Z,14.30
2019-05-22T23:54:39.153Z,14.30
2019-05-22T23:59:50.122Z,14.20
